Hawick, MN

12:46 AM CDT on September 15, 2014 (GMT -0500)
Paynesville | Change Station
CLOSE
Current Station
Airport
Location: Paynesville,
Elevation: 1181 ft
Nearby Weather Stations

Elev 1181 ft 45.37 °N, 94.74 °W | Updated 12 minutes ago

Clear
Clear
44 °F
Feels Like 44 °F
N
0
Wind Variable Wind from North

Today
High -- | Low -- °F
--% Chance of Precip.
Yesterday
High -- | Low -- °F
Precip. -- in
6:58 AM 7:30 PM
Waning Gibbous, 58% visible
Pressure 30.16 in
Visibility 10.0 miles
Clouds Clear
Dew Point 43 °F
Humidity 99%
Rainfall 0.00 in
Snow Depth Not available.
UV 0 out of 12
Pollen 3.50 out of 12
Air Quality Not available.
Flu Activity Not available.
METAR KPEX 150534Z AUTO 00000KT 10SM CLR 07/06 A3016 RMK AO2 T00650063 PWINO

More Conditions Fewer Conditions

Pressure 30.16 in
Visibility 10.0 miles
Clouds Clear
Dew Point 43 °F
Humidity 99%
Rainfall 0.00 in
Snow Depth Not available.
UV 0 out of 12
Pollen 3.50 out of 12
Air Quality Not available.
Flu Activity Not available.
METAR KPEX 150534Z AUTO 00000KT 10SM CLR 07/06 A3016 RMK AO2 T00650063 PWINO

More Conditions Fewer Conditions

10-Day Weather Forecast

Almanac

Astronomy

Sep. 15, 2014 Rise Set
Actual Time 6:58 AM CDT 7:30 PM CDT
Civil Twilight 6:28 AM CDT 8:00 PM CDT
Nautical Twilight 5:53 AM CDT 8:35 PM CDT
Astronomical Twilight 5:17 AM CDT 9:11 PM CDT
Moon 11:58 PM CDT 2:16 PM CDT
Length of Visible Light 13h 31m
Length of Day
12h 32m
Tomorrow will be 3m 8s shorter.
Waning Gibbous, 58% of the Moon is Illuminated
Today
Waning Gibbous
Sep 15
Last Quarter
Sep 24
New
Oct 1
First Quarter
Oct 8
Full

Today's Extremes

State Highs State Lows

Community

WunderPhotos

Upload Photos

1,753,416 photos uploaded!

WunderBlogs® & News

Nearby

Snow Depth

Station Depth Elevation
No new snow has been reported.

Earthquake Activity

City Distance Mag. Time & Date
No recent earthquake activity has been reported nearby.
Minimum magnitude displayed is 2.5.

Coastal Water Temperatures

Place Temperature
No Stations Reporting

Nearby Weather Stations